Main page
METAR-TAF:

METAR-TAF

Airports :

Getafe Air Base

Madrid-Getafe, Spain

latitude: 40-18N, longitude: 003-43W, elevation: 620 m

Current weather observation

The report was made 6 hours and 46 minutes ago, at 19:00 UTC
Wind 4 kt from the Southwest
Temperature 5°C
Humidity 93%
Pressure 1011 hPa
Visibility: 7000 m
Scattered clouds at a height of 500 ft
Overcast at a height of 1000 ft
rain

METAR: LEGT 191900Z 22004KT 7000 RA SCT005 OVC010 05/04 Q1011

Time: 02:46 (01:46 UTC)

Forecast

The report was made 8 hours and 46 minutes ago, at 17:00 UTC
Forecast valid from 19 at 18 UTC to 20 at 03 UTC
Wind 5 kt from variable directions
Visibility: 4900 m
Scattered clouds at a height of 1500 ft
Broken clouds at a height of 2500 ft
mist
Temporary
from 19 at 18 UTC to 20 at 03 UTC
Visibility: 2500 m
Broken clouds at a height of 900 ft
drizzle, rain, mist

TAF: LEGT 191700Z 1918/2003 VRB05KT 4900 BR SCT015 BKN025 TEMPO 1918/2003 2500 DZRA BR BKN009

Weather observations and forecasts of more than 4000 airports (METAR and TAF reports).

The available stations are represented by yellow and red dots on the map.

Hover mouse over dot to see the name of the station.

Then click to see weather observations and forecasts.

To change the map : click on the green buttons with a black cross to zoom in, on the green button with a dash to zoom out, or on the green arrows for adjacent maps.


METAR-TAF: